Time;durP1;ratioP1;P1;durP2;ratioP2;P2;SDS_P1;SDS_P2;PMS_P1;PMS_P2;Temp;Humidity;BMP_temperature;BMP_pressure;BME280_temperature;BME280_humidity;BME280_pressure;Samples;Min_cycle;Max_cycle;Signal;HPM_P1;HPM_P2
2021/03/20 00:01:43;;;;;;;2.30;2.10;;;7.40;99.90;;;;;;5070415;28;20229;-77
2021/03/20 00:04:10;;;;;;;2.53;2.00;;;7.40;99.90;;;;;;5070427;28;20252;-78
2021/03/20 00:06:40;;;;;;;2.00;1.55;;;7.40;99.90;;;;;;5070467;28;20283;-78
2021/03/20 00:09:09;;;;;;;3.05;1.85;;;7.40;99.90;;;;;;5075669;28;20307;-78
2021/03/20 00:11:36;;;;;;;2.42;1.38;;;7.40;99.90;;;;;;5073847;28;20249;-78
2021/03/20 00:14:03;;;;;;;3.45;2.28;;;7.40;99.90;;;;;;5091168;28;20197;-78
2021/03/20 00:16:29;;;;;;;2.72;1.40;;;7.40;99.90;;;;;;5077716;28;20311;-77
2021/03/20 00:18:56;;;;;;;2.03;1.17;;;7.40;99.90;;;;;;5071340;28;20221;-78
2021/03/20 00:21:22;;;;;;;2.75;1.30;;;7.40;99.90;;;;;;5070996;28;20221;-77
2021/03/20 00:23:49;;;;;;;2.67;1.77;;;7.30;99.90;;;;;;5071444;28;20198;-77
2021/03/20 00:26:16;;;;;;;3.25;1.70;;;7.40;99.90;;;;;;5074453;28;20197;-77
2021/03/20 00:28:42;;;;;;;3.15;1.70;;;7.30;99.90;;;;;;5077865;28;20589;-77
2021/03/20 00:31:12;;;;;;;2.30;1.45;;;7.40;99.90;;;;;;5074363;28;20206;-77
2021/03/20 00:33:39;;;;;;;1.90;1.23;;;7.40;99.90;;;;;;5074445;28;20205;-78
2021/03/20 00:36:07;;;;;;;2.72;1.75;;;7.40;99.90;;;;;;5074159;28;20237;-77
2021/03/20 00:38:33;;;;;;;1.65;1.50;;;7.30;99.90;;;;;;5085904;28;20696;-77
2021/03/20 00:41:00;;;;;;;1.38;1.20;;;7.30;99.90;;;;;;5074231;28;20267;-77
2021/03/20 00:43:27;;;;;;;2.97;1.58;;;7.30;99.90;;;;;;5090127;28;20228;-77
2021/03/20 00:45:54;;;;;;;2.33;1.50;;;7.20;99.90;;;;;;5093960;28;20190;-77
2021/03/20 00:48:22;;;;;;;2.78;1.48;;;7.20;99.90;;;;;;5093979;28;20218;-77
2021/03/20 00:50:48;;;;;;;2.00;1.80;;;7.20;99.90;;;;;;5093483;28;20225;-77
2021/03/20 00:53:15;;;;;;;1.73;1.33;;;7.20;99.90;;;;;;5093299;28;20209;-78
2021/03/20 00:55:41;;;;;;;2.13;1.20;;;7.20;99.90;;;;;;5093974;28;20221;-78
2021/03/20 00:58:20;;;;;;;1.55;1.30;;;7.20;99.90;;;;;;5078773;28;20669;-78
2021/03/20 01:00:47;;;;;;;1.92;1.15;;;7.20;99.90;;;;;;5073648;28;20206;-78
2021/03/20 01:03:14;;;;;;;1.73;1.30;;;7.20;99.90;;;;;;5073487;28;20250;-78
2021/03/20 01:05:40;;;;;;;1.90;1.40;;;7.20;99.90;;;;;;5073684;28;20222;-78
2021/03/20 01:08:07;;;;;;;2.00;1.58;;;7.20;99.90;;;;;;5077162;28;20688;-78
2021/03/20 01:10:33;;;;;;;1.40;1.25;;;7.10;99.90;;;;;;5074952;28;20221;-78
2021/03/20 01:13:00;;;;;;;2.30;1.55;;;7.10;99.90;;;;;;5075592;28;20214;-78
2021/03/20 01:15:27;;;;;;;1.63;1.23;;;7.10;99.90;;;;;;5072405;28;20202;-78
2021/03/20 01:17:53;;;;;;;2.15;1.23;;;7.10;99.90;;;;;;5072960;28;20695;-78
2021/03/20 01:20:19;;;;;;;2.08;1.33;;;7.20;99.90;;;;;;5072369;28;20226;-78
2021/03/20 01:22:46;;;;;;;1.52;1.30;;;7.20;99.90;;;;;;5088074;28;20239;-78
2021/03/20 01:25:13;;;;;;;1.75;1.25;;;7.10;99.90;;;;;;5093278;28;20725;-78
2021/03/20 01:27:40;;;;;;;2.97;1.30;;;7.10;99.90;;;;;;5090571;28;20545;-78
2021/03/20 01:30:09;;;;;;;1.52;1.00;;;7.00;99.90;;;;;;5074098;28;20222;-78
2021/03/20 01:32:36;;;;;;;2.70;1.40;;;7.10;99.90;;;;;;5073388;28;20190;-77
2021/03/20 01:35:02;;;;;;;1.38;1.20;;;7.10;99.90;;;;;;5071980;28;20214;-77
2021/03/20 01:37:29;;;;;;;3.13;1.50;;;7.10;99.90;;;;;;5072847;28;20295;-77
2021/03/20 01:39:55;;;;;;;1.83;1.25;;;7.10;99.90;;;;;;5072680;28;20271;-77
2021/03/20 01:42:22;;;;;;;1.63;1.33;;;7.10;99.90;;;;;;5089547;28;20677;-77
2021/03/20 01:45:06;;;;;;;1.75;1.40;;;7.10;99.90;;;;;;5093009;28;20197;-77
2021/03/20 01:47:34;;;;;;;1.95;1.20;;;7.00;99.90;;;;;;5092888;28;20224;-78
2021/03/20 01:50:01;;;;;;;1.38;1.27;;;7.00;99.90;;;;;;5082466;28;20218;-77
2021/03/20 01:52:31;;;;;;;3.38;1.50;;;7.00;99.90;;;;;;5082655;28;20584;-77
2021/03/20 01:55:08;;;;;;;1.65;1.20;;;7.00;99.90;;;;;;5076353;28;20218;-77
2021/03/20 01:57:38;;;;;;;1.90;1.70;;;7.00;99.90;;;;;;5078350;28;20262;-78
2021/03/20 02:00:09;;;;;;;1.15;1.05;;;7.00;99.90;;;;;;5092773;28;20227;-78
2021/03/20 02:02:35;;;;;;;2.08;1.70;;;6.90;99.90;;;;;;5080021;28;20186;-77
2021/03/20 02:05:04;;;;;;;1.90;1.23;;;6.90;99.90;;;;;;5072580;28;20292;-77
2021/03/20 02:07:30;;;;;;;1.98;1.58;;;6.90;99.90;;;;;;5072400;28;20661;-78
2021/03/20 02:09:56;;;;;;;1.73;1.40;;;6.90;99.90;;;;;;5073475;28;20221;-77
2021/03/20 02:12:28;;;;;;;2.00;1.20;;;6.80;99.90;;;;;;5072033;28;20197;-78
2021/03/20 02:15:01;;;;;;;1.20;1.10;;;6.80;99.90;;;;;;5072517;28;20193;-77
2021/03/20 02:17:39;;;;;;;1.67;1.30;;;6.80;99.90;;;;;;5077448;28;20231;-78
2021/03/20 02:20:34;;;;;;;1.73;1.48;;;6.80;99.90;;;;;;5079659;28;20237;-78
2021/03/20 02:23:33;;;;;;;1.88;1.50;;;6.70;99.90;;;;;;5072930;28;20778;-78
2021/03/20 02:26:12;;;;;;;2.97;1.80;;;6.80;99.90;;;;;;5071647;28;20218;-78
2021/03/20 02:28:59;;;;;;;1.60;1.20;;;6.80;99.90;;;;;;5072247;28;20225;-78
2021/03/20 02:31:53;;;;;;;1.90;1.35;;;6.80;99.90;;;;;;5071949;28;20194;-78
2021/03/20 02:34:28;;;;;;;1.83;1.30;;;6.80;99.90;;;;;;5071549;28;20217;-78
2021/03/20 02:37:01;;;;;;;1.92;1.40;;;6.70;99.90;;;;;;5070792;28;20217;-78
2021/03/20 02:39:36;;;;;;;2.60;1.52;;;6.70;99.90;;;;;;5077998;28;20221;-78
2021/03/20 02:42:09;;;;;;;1.65;1.50;;;6.70;99.90;;;;;;5071309;28;20218;-78
2021/03/20 02:44:41;;;;;;;1.88;1.20;;;6.70;99.90;;;;;;5080455;28;20182;-78
2021/03/20 02:47:11;;;;;;;1.58;1.40;;;6.70;99.90;;;;;;5083963;28;20202;-78
2021/03/20 02:49:44;;;;;;;2.55;2.05;;;6.70;99.90;;;;;;5071655;28;20222;-78
2021/03/20 02:52:17;;;;;;;2.20;1.40;;;6.70;99.90;;;;;;5071206;28;20229;-78
2021/03/20 02:54:49;;;;;;;2.00;1.48;;;6.60;99.90;;;;;;5071438;28;20222;-78
2021/03/20 02:57:18;;;;;;;1.88;1.35;;;6.60;99.90;;;;;;5091162;28;20216;-78
2021/03/20 02:59:50;;;;;;;1.67;1.45;;;6.60;99.90;;;;;;5076060;28;20206;-80
2021/03/20 03:02:18;;;;;;;2.92;1.70;;;6.60;99.90;;;;;;5091538;28;20249;-79
2021/03/20 03:04:50;;;;;;;2.10;1.40;;;6.60;99.90;;;;;;5080590;28;20225;-79
2021/03/20 03:07:21;;;;;;;1.85;1.33;;;6.60;99.90;;;;;;5091749;28;20659;-79
2021/03/20 03:09:51;;;;;;;1.35;1.25;;;6.50;99.90;;;;;;5071943;28;20771;-78
2021/03/20 03:12:23;;;;;;;3.25;1.45;;;6.50;99.90;;;;;;5081768;28;20194;-78
2021/03/20 03:14:55;;;;;;;2.35;1.23;;;6.50;99.90;;;;;;5079251;28;20193;-78
2021/03/20 03:17:25;;;;;;;2.35;1.48;;;6.50;99.90;;;;;;5090260;28;20246;-78
2021/03/20 03:19:57;;;;;;;2.08;1.50;;;6.50;99.90;;;;;;5091180;28;20213;-79
2021/03/20 03:22:27;;;;;;;2.63;1.38;;;6.50;99.90;;;;;;5074639;28;20190;-78
2021/03/20 03:24:58;;;;;;;2.10;1.33;;;6.50;99.90;;;;;;5078264;28;20539;-79
2021/03/20 03:27:27;;;;;;;1.60;1.50;;;6.40;99.90;;;;;;5078534;28;20598;-79
2021/03/20 03:29:53;;;;;;;3.03;1.92;;;6.40;99.90;;;;;;5088018;28;20225;-79
2021/03/20 03:32:26;;;;;;;3.40;1.63;;;6.40;99.90;;;;;;5078994;28;20189;-79
2021/03/20 03:34:59;;;;;;;3.20;1.58;;;6.50;99.90;;;;;;5091236;28;20209;-79
2021/03/20 03:37:33;;;;;;;1.80;1.30;;;6.50;99.90;;;;;;5070862;28;20249;-78
2021/03/20 03:40:06;;;;;;;5.25;1.55;;;6.50;99.90;;;;;;5076955;28;20620;-78
2021/03/20 03:42:32;;;;;;;7.85;1.70;;;6.50;99.90;;;;;;5079998;28;20221;-78
2021/03/20 03:45:00;;;;;;;3.28;1.73;;;6.40;99.90;;;;;;5082673;28;20218;-78
2021/03/20 03:47:28;;;;;;;3.25;1.73;;;6.40;99.90;;;;;;5071554;28;20696;-78
2021/03/20 03:49:57;;;;;;;3.53;1.80;;;6.40;99.90;;;;;;5070517;28;20226;-77
2021/03/20 03:52:23;;;;;;;2.60;1.60;;;6.40;99.90;;;;;;5070877;28;20229;-77
2021/03/20 03:54:50;;;;;;;3.20;1.65;;;6.40;99.90;;;;;;5086632;28;20259;-78
2021/03/20 03:57:27;;;;;;;1.52;1.42;;;6.40;99.90;;;;;;5082549;28;20197;-77
2021/03/20 04:00:05;;;;;;;3.58;1.50;;;6.50;99.90;;;;;;5069607;28;20220;-78
2021/03/20 04:02:46;;;;;;;1.58;1.30;;;6.30;99.90;;;;;;5070751;28;20194;-78
2021/03/20 04:05:22;;;;;;;1.70;1.45;;;6.30;99.90;;;;;;5070415;28;20214;-78
2021/03/20 04:08:00;;;;;;;3.25;1.80;;;6.40;99.90;;;;;;5076973;28;20217;-78
2021/03/20 04:10:30;;;;;;;2.35;1.77;;;6.40;99.90;;;;;;5083357;28;20217;-79
2021/03/20 04:13:02;;;;;;;1.58;1.33;;;6.40;99.90;;;;;;5071059;28;20224;-78
2021/03/20 04:15:40;;;;;;;4.03;2.17;;;6.30;99.90;;;;;;5072471;28;20236;-77
2021/03/20 04:18:17;;;;;;;2.17;1.52;;;6.30;99.90;;;;;;5087894;28;20224;-77
2021/03/20 04:20:50;;;;;;;1.60;1.40;;;6.30;99.90;;;;;;5070110;28;20715;-75
2021/03/20 04:23:18;;;;;;;2.00;1.70;;;6.30;99.90;;;;;;5080424;28;20190;-78
2021/03/20 04:25:50;;;;;;;3.78;2.00;;;6.30;99.90;;;;;;5077951;28;20313;-77
2021/03/20 04:28:28;;;;;;;1.48;1.33;;;6.30;99.90;;;;;;5070386;28;20214;-78
2021/03/20 04:31:03;;;;;;;4.15;1.77;;;6.30;99.90;;;;;;5070096;28;20701;-78
2021/03/20 04:33:37;;;;;;;5.00;1.60;;;6.30;99.90;;;;;;5069908;28;20790;-78
2021/03/20 04:36:09;;;;;;;2.40;1.63;;;6.30;99.90;;;;;;5069980;28;20214;-80
2021/03/20 04:38:35;;;;;;;1.70;1.40;;;6.30;99.90;;;;;;5070629;28;20260;-78
2021/03/20 04:41:04;;;;;;;2.40;1.95;;;6.20;99.90;;;;;;5072755;28;20225;-78
2021/03/20 04:43:33;;;;;;;2.65;1.83;;;6.20;99.90;;;;;;5070258;28;20464;-77
2021/03/20 04:46:03;;;;;;;2.88;1.50;;;6.20;99.90;;;;;;5089477;28;20956;-78
2021/03/20 04:48:32;;;;;;;3.58;2.17;;;6.20;99.90;;;;;;5090101;28;20198;-77
2021/03/20 04:51:03;;;;;;;2.72;1.90;;;6.20;99.90;;;;;;5072428;28;20226;-77
2021/03/20 04:53:30;;;;;;;3.28;1.58;;;6.20;99.90;;;;;;5074460;28;20222;-77
2021/03/20 04:56:01;;;;;;;2.50;1.50;;;6.20;99.90;;;;;;5069563;28;20210;-77
2021/03/20 04:58:37;;;;;;;3.45;2.00;;;6.10;99.90;;;;;;5069805;28;20260;-78
2021/03/20 05:01:09;;;;;;;2.60;1.90;;;6.10;99.90;;;;;;5080014;28;20193;-77
2021/03/20 05:03:41;;;;;;;3.17;1.65;;;6.20;99.90;;;;;;5084388;28;20267;-77
2021/03/20 05:06:10;;;;;;;2.42;1.92;;;6.10;99.90;;;;;;5073071;28;20260;-77
2021/03/20 05:08:44;;;;;;;4.47;2.30;;;6.10;99.90;;;;;;5069599;28;20217;-77
2021/03/20 05:11:20;;;;;;;2.78;1.35;;;6.10;99.90;;;;;;5082057;28;20207;-78
2021/03/20 05:13:50;;;;;;;3.75;1.73;;;6.20;99.90;;;;;;5077791;28;20224;-79
2021/03/20 05:16:32;;;;;;;3.55;1.90;;;6.20;99.90;;;;;;5093782;28;20244;-78
2021/03/20 05:18:59;;;;;;;2.15;1.88;;;6.10;99.90;;;;;;5083246;28;20200;-78
2021/03/20 05:21:27;;;;;;;2.35;1.60;;;6.10;99.90;;;;;;5073002;28;20225;-78
2021/03/20 05:23:56;;;;;;;2.97;1.60;;;6.10;99.90;;;;;;5072669;28;20221;-78
2021/03/20 05:26:23;;;;;;;4.70;1.88;;;6.00;99.90;;;;;;5086026;28;20212;-79
2021/03/20 05:28:50;;;;;;;2.28;1.70;;;6.10;99.90;;;;;;5093545;28;20554;-79
2021/03/20 05:31:17;;;;;;;1.80;1.48;;;6.10;99.90;;;;;;5092751;28;20749;-79
2021/03/20 05:33:45;;;;;;;3.28;1.92;;;6.10;99.90;;;;;;5091489;28;20237;-79
2021/03/20 05:36:12;;;;;;;2.05;1.70;;;6.10;99.90;;;;;;5085179;28;20274;-79
2021/03/20 05:38:38;;;;;;;3.45;1.98;;;6.00;99.90;;;;;;5072565;28;20214;-80
2021/03/20 05:41:20;;;;;;;3.03;2.25;;;6.00;99.90;;;;;;5073059;28;20222;-79
2021/03/20 05:44:02;;;;;;;2.75;1.88;;;6.00;99.90;;;;;;5083392;28;20316;-79
2021/03/20 05:46:38;;;;;;;2.05;1.75;;;6.00;99.90;;;;;;5092121;28;20209;-79
2021/03/20 05:49:36;;;;;;;3.55;1.60;;;5.90;99.90;;;;;;5092379;28;20205;-78
2021/03/20 05:52:27;;;;;;;2.25;1.88;;;6.00;99.90;;;;;;5080315;28;20213;-78
2021/03/20 05:55:27;;;;;;;4.15;1.95;;;6.00;99.90;;;;;;5092728;28;20228;-78
2021/03/20 05:58:11;;;;;;;2.08;1.88;;;6.00;99.90;;;;;;5048553;28;20190;-79
2021/03/20 06:00:46;;;;;;;3.75;2.00;;;5.90;99.90;;;;;;5075093;28;20809;-79
2021/03/20 06:03:29;;;;;;;2.63;2.13;;;6.00;99.90;;;;;;5089662;28;20300;-78
2021/03/20 06:06:01;;;;;;;2.30;1.45;;;6.00;99.90;;;;;;5087042;28;20225;-77
2021/03/20 06:09:01;;;;;;;1.92;1.73;;;6.00;99.90;;;;;;5077468;28;20218;-79
2021/03/20 06:11:38;;;;;;;2.63;1.88;;;5.90;99.90;;;;;;5081348;28;20581;-79
2021/03/20 06:14:30;;;;;;;3.53;2.40;;;5.90;99.90;;;;;;5081730;28;20198;-78
2021/03/20 06:17:12;;;;;;;5.38;2.83;;;5.90;99.90;;;;;;5069466;28;20264;-79
2021/03/20 06:20:02;;;;;;;4.38;1.92;;;5.90;99.90;;;;;;5072173;28;20244;-78
2021/03/20 06:22:56;;;;;;;3.25;2.13;;;5.90;99.90;;;;;;5071913;28;20198;-79
2021/03/20 06:25:48;;;;;;;2.65;1.90;;;5.90;99.90;;;;;;5072642;28;20194;-79
2021/03/20 06:28:21;;;;;;;3.15;2.28;;;6.00;99.90;;;;;;5070162;28;20198;-80
2021/03/20 06:30:54;;;;;;;3.25;2.25;;;6.20;99.90;;;;;;5073236;28;20210;-79
2021/03/20 06:33:25;;;;;;;3.95;2.08;;;6.40;99.90;;;;;;5072509;28;20232;-78
2021/03/20 06:35:56;;;;;;;3.90;2.45;;;6.60;99.90;;;;;;5073756;28;20210;-80
2021/03/20 06:38:33;;;;;;;2.85;1.95;;;6.80;99.90;;;;;;5089162;28;20239;-78
2021/03/20 06:41:07;;;;;;;1.75;1.63;;;7.00;99.90;;;;;;5076662;28;20189;-76
2021/03/20 06:43:41;;;;;;;2.85;2.42;;;7.10;99.90;;;;;;5077341;28;20208;-77
2021/03/20 06:46:15;;;;;;;2.03;1.80;;;7.20;99.60;;;;;;5083568;28;20614;-77
2021/03/20 06:48:43;;;;;;;2.63;2.05;;;7.30;99.10;;;;;;5086370;28;20217;-77
2021/03/20 06:51:09;;;;;;;3.03;2.22;;;7.30;98.40;;;;;;5073186;28;20229;-77
2021/03/20 06:53:44;;;;;;;2.75;2.15;;;7.40;97.70;;;;;;5073822;28;20218;-76
2021/03/20 06:56:12;;;;;;;2.60;2.00;;;7.40;97.80;;;;;;5092263;28;20218;-78
2021/03/20 06:58:41;;;;;;;2.72;1.95;;;7.50;97.50;;;;;;5088701;28;20205;-77
2021/03/20 07:01:25;;;;;;;2.60;2.13;;;7.50;97.70;;;;;;5071414;28;20260;-78
2021/03/20 07:04:10;;;;;;;2.55;1.95;;;7.50;97.80;;;;;;5075554;28;20220;-76
2021/03/20 07:06:42;;;;;;;2.17;1.65;;;7.50;97.60;;;;;;5092750;28;20218;-76
2021/03/20 07:09:09;;;;;;;3.00;2.10;;;7.50;97.90;;;;;;5087763;28;20178;-76
2021/03/20 07:11:37;;;;;;;1.50;1.40;;;7.40;98.00;;;;;;5078639;28;20228;-75
2021/03/20 07:14:05;;;;;;;2.65;1.98;;;7.30;98.00;;;;;;5072151;28;20218;-75
2021/03/20 07:16:50;;;;;;;3.75;3.05;;;7.10;98.50;;;;;;5088130;28;20217;-76
2021/03/20 07:19:16;;;;;;;2.33;1.83;;;7.00;99.10;;;;;;5090632;28;20193;-75
2021/03/20 07:21:44;;;;;;;2.67;2.10;;;7.00;98.60;;;;;;5080382;28;20585;-75
2021/03/20 07:24:15;;;;;;;3.35;2.15;;;7.10;98.80;;;;;;5091065;28;20201;-76
2021/03/20 07:26:52;;;;;;;2.58;1.63;;;7.20;98.80;;;;;;5085124;28;20221;-76
2021/03/20 07:29:19;;;;;;;4.95;2.20;;;7.20;98.50;;;;;;5074498;28;20185;-75
2021/03/20 07:31:54;;;;;;;3.55;2.25;;;7.30;98.60;;;;;;5070637;28;20248;-75
2021/03/20 07:34:28;;;;;;;6.20;2.17;;;7.40;98.50;;;;;;5076079;28;20231;-74
2021/03/20 07:37:04;;;;;;;2.05;1.85;;;7.40;98.30;;;;;;5075346;28;20210;-74
2021/03/20 07:39:40;;;;;;;2.22;1.73;;;7.30;97.90;;;;;;5082715;28;20210;-74
2021/03/20 07:42:24;;;;;;;2.72;1.95;;;7.30;97.60;;;;;;5077451;28;20209;-75
2021/03/20 07:44:55;;;;;;;2.60;1.67;;;7.20;98.00;;;;;;5078114;28;20220;-73
2021/03/20 07:47:24;;;;;;;2.75;2.42;;;7.20;98.40;;;;;;5077076;28;20350;-73
2021/03/20 07:50:15;;;;;;;3.63;1.70;;;7.30;98.70;;;;;;5071875;28;20244;-73
2021/03/20 07:52:42;;;;;;;4.47;2.58;;;7.30;98.30;;;;;;5077459;28;20563;-73
2021/03/20 07:55:15;;;;;;;3.45;2.25;;;7.20;98.10;;;;;;5074883;28;20194;-75
2021/03/20 07:57:51;;;;;;;2.58;1.92;;;7.30;98.50;;;;;;5087827;28;20248;-75
2021/03/20 08:00:24;;;;;;;5.75;2.13;;;7.30;98.70;;;;;;5072065;28;20181;-75
2021/03/20 08:02:51;;;;;;;3.15;2.55;;;7.30;98.80;;;;;;5070755;28;20210;-75
2021/03/20 08:05:31;;;;;;;1.83;1.50;;;7.20;98.70;;;;;;5073552;28;20216;-75
2021/03/20 08:08:07;;;;;;;4.93;2.08;;;7.10;98.10;;;;;;5085083;28;20221;-75
2021/03/20 08:10:35;;;;;;;4.45;1.90;;;7.10;98.90;;;;;;5086786;28;20217;-75
2021/03/20 08:13:05;;;;;;;3.10;2.20;;;7.10;98.30;;;;;;5078669;28;20213;-75
2021/03/20 08:15:35;;;;;;;2.65;2.05;;;7.10;98.20;;;;;;5073699;28;20557;-75
2021/03/20 08:18:15;;;;;;;5.75;2.30;;;7.20;98.10;;;;;;5072542;28;20284;-74
2021/03/20 08:20:42;;;;;;;2.47;2.00;;;7.10;98.10;;;;;;5090704;28;20674;-75
2021/03/20 08:23:30;;;;;;;4.47;2.60;;;7.50;98.30;;;;;;5076068;28;20213;-75
2021/03/20 08:26:01;;;;;;;4.95;1.70;;;7.70;96.40;;;;;;5080797;28;20209;-75
2021/03/20 08:28:49;;;;;;;6.07;2.63;;;8.00;96.50;;;;;;5088858;28;20182;-75
2021/03/20 08:31:34;;;;;;;4.65;4.03;;;8.20;95.00;;;;;;5086632;28;20222;-75
2021/03/20 08:34:24;;;;;;;3.17;1.90;;;8.50;94.70;;;;;;5073613;28;20231;-75
2021/03/20 08:37:06;;;;;;;3.50;2.15;;;8.60;94.40;;;;;;5071187;28;20696;-75
2021/03/20 08:39:49;;;;;;;2.17;1.70;;;8.80;93.50;;;;;;5072524;28;20183;-75
2021/03/20 08:42:25;;;;;;;2.78;2.08;;;8.90;92.60;;;;;;5080870;28;20209;-76
2021/03/20 08:45:03;;;;;;;2.78;1.70;;;9.10;91.30;;;;;;5073558;28;20209;-76
2021/03/20 08:47:48;;;;;;;1.92;1.70;;;9.20;91.80;;;;;;5075100;28;20217;-76
2021/03/20 08:50:24;;;;;;;2.30;2.08;;;9.10;78.70;;;;;;5073906;28;20231;-76
2021/03/20 08:52:59;;;;;;;4.05;1.83;;;8.90;88.20;;;;;;5073165;28;20214;-76
2021/03/20 08:55:59;;;;;;;2.30;2.10;;;9.00;88.00;;;;;;5073609;28;20209;-76
2021/03/20 08:58:52;;;;;;;2.47;2.22;;;9.10;90.40;;;;;;5082828;28;20189;-76
2021/03/20 09:01:27;;;;;;;2.38;1.80;;;9.20;90.00;;;;;;5084494;28;20232;-75
2021/03/20 09:03:57;;;;;;;1.98;1.40;;;9.30;91.40;;;;;;5073468;28;20217;-75
2021/03/20 09:06:30;;;;;;;3.42;1.98;;;9.30;91.60;;;;;;5075145;28;20218;-75
2021/03/20 09:09:01;;;;;;;2.35;1.45;;;9.40;89.10;;;;;;5073658;28;20209;-76
2021/03/20 09:11:42;;;;;;;1.83;1.65;;;9.50;90.50;;;;;;5073319;28;20222;-76
2021/03/20 09:14:15;;;;;;;2.75;2.45;;;9.50;90.20;;;;;;5073355;28;20218;-76
2021/03/20 09:16:46;;;;;;;2.45;1.70;;;9.50;88.40;;;;;;5074843;28;20186;-76
2021/03/20 09:19:20;;;;;;;2.47;1.33;;;9.60;89.10;;;;;;5091857;28;20193;-75
2021/03/20 09:21:48;;;;;;;1.90;1.50;;;9.60;91.30;;;;;;5083686;28;20256;-76
2021/03/20 09:24:20;;;;;;;2.40;1.75;;;9.60;90.70;;;;;;5088043;28;20216;-76
2021/03/20 09:26:48;;;;;;;2.00;1.60;;;9.50;89.40;;;;;;5085243;28;20193;-75
2021/03/20 09:29:20;;;;;;;3.67;1.95;;;9.50;89.50;;;;;;5086368;28;20696;-77
2021/03/20 09:32:14;;;;;;;1.77;1.35;;;9.40;90.30;;;;;;5073446;28;20233;-76
2021/03/20 09:34:47;;;;;;;2.45;2.17;;;9.30;90.80;;;;;;5081331;28;20217;-76
2021/03/20 09:38:00;;;;;;;2.95;1.60;;;9.30;91.40;;;;;;5083345;28;20249;-76
2021/03/20 09:40:55;;;;;;;2.28;1.98;;;9.20;91.00;;;;;;5072669;28;20275;-76
2021/03/20 09:43:35;;;;;;;2.15;1.52;;;9.20;91.40;;;;;;5072581;28;20217;-76
2021/03/20 09:46:43;;;;;;;3.67;1.80;;;9.20;92.50;;;;;;5073037;28;20233;-75
2021/03/20 09:49:48;;;;;;;4.53;1.65;;;9.20;92.40;;;;;;5090482;28;20253;-75
2021/03/20 09:52:46;;;;;;;2.58;1.40;;;9.10;92.80;;;;;;5091941;28;20217;-76
2021/03/20 09:55:43;;;;;;;2.30;1.55;;;9.10;92.80;;;;;;5085519;28;20268;-76
2021/03/20 09:58:37;;;;;;;2.08;1.80;;;9.00;91.40;;;;;;5079907;28;20600;-76
2021/03/20 10:01:18;;;;;;;2.90;1.95;;;9.00;92.40;;;;;;5093210;28;20217;-76
2021/03/20 10:03:51;;;;;;;2.35;1.63;;;9.00;91.70;;;;;;5086112;28;20214;-76
2021/03/20 10:06:24;;;;;;;3.20;1.60;;;9.00;90.90;;;;;;5072146;28;20915;-75
2021/03/20 10:09:00;;;;;;;2.65;1.85;;;9.00;90.70;;;;;;5074813;28;20225;-76
2021/03/20 10:11:34;;;;;;;1.90;1.30;;;8.90;91.00;;;;;;5092531;28;20308;-76
2021/03/20 10:14:01;;;;;;;2.08;1.45;;;8.90;88.40;;;;;;5088770;28;20220;-76
2021/03/20 10:16:30;;;;;;;2.70;1.55;;;8.90;87.40;;;;;;5082420;28;20194;-76
2021/03/20 10:19:09;;;;;;;2.35;1.38;;;8.90;90.30;;;;;;5093012;28;20223;-75
2021/03/20 10:21:35;;;;;;;1.45;1.15;;;8.90;91.40;;;;;;5078825;28;20608;-76
2021/03/20 10:24:18;;;;;;;1.98;1.13;;;8.90;91.70;;;;;;5072355;28;20254;-75
2021/03/20 10:26:51;;;;;;;3.78;1.67;;;8.90;91.20;;;;;;5072791;28;20182;-76
2021/03/20 10:29:29;;;;;;;2.95;1.42;;;8.90;91.50;;;;;;5078664;28;20185;-76
2021/03/20 10:32:03;;;;;;;1.60;1.38;;;8.80;89.90;;;;;;5070991;28;20225;-75
2021/03/20 10:34:44;;;;;;;1.92;1.45;;;8.80;86.40;;;;;;5071836;28;20584;-76
2021/03/20 10:37:12;;;;;;;3.10;1.25;;;8.80;82.70;;;;;;5091400;28;20787;-76
2021/03/20 10:39:42;;;;;;;2.58;1.70;;;8.80;82.90;;;;;;5091744;28;20218;-76
2021/03/20 10:42:18;;;;;;;1.45;1.33;;;8.80;85.30;;;;;;5072206;28;20214;-76
2021/03/20 10:44:46;;;;;;;2.15;1.40;;;8.70;87.00;;;;;;5076531;28;20573;-76
2021/03/20 10:47:23;;;;;;;3.10;1.90;;;8.70;90.30;;;;;;5084722;28;20221;-75
2021/03/20 10:49:53;;;;;;;4.32;1.80;;;8.80;90.50;;;;;;5079069;28;20218;-76
2021/03/20 10:52:22;;;;;;;2.30;1.58;;;8.80;88.80;;;;;;5071147;28;20221;-75
2021/03/20 10:54:52;;;;;;;2.63;1.80;;;8.80;90.30;;;;;;5086467;28;20718;-76
2021/03/20 10:57:23;;;;;;;2.72;1.95;;;8.80;90.40;;;;;;5071575;28;20589;-76
2021/03/20 10:59:50;;;;;;;2.20;1.20;;;8.80;90.50;;;;;;5080902;28;20217;-76
2021/03/20 11:02:22;;;;;;;2.70;1.50;;;8.80;92.30;;;;;;5088748;28;20275;-76
2021/03/20 11:04:50;;;;;;;1.88;1.30;;;8.90;92.10;;;;;;5078713;28;20228;-76
2021/03/20 11:07:18;;;;;;;1.30;1.20;;;8.90;91.10;;;;;;5070268;28;20657;-75
2021/03/20 11:09:45;;;;;;;2.80;1.52;;;8.90;90.60;;;;;;5090043;28;20251;-74
2021/03/20 11:12:16;;;;;;;1.73;1.63;;;9.00;91.00;;;;;;5091564;28;20291;-76
2021/03/20 11:14:48;;;;;;;2.45;2.00;;;9.00;87.00;;;;;;5088505;28;20196;-80
2021/03/20 11:17:18;;;;;;;3.67;2.20;;;8.80;75.40;;;;;;5081250;28;20553;-74
2021/03/20 11:19:45;;;;;;;4.90;1.90;;;8.70;72.20;;;;;;5070237;28;20214;-75
2021/03/20 11:22:33;;;;;;;2.20;1.50;;;8.80;74.30;;;;;;5084579;28;20214;-74
2021/03/20 11:25:03;;;;;;;3.17;2.00;;;8.80;75.00;;;;;;5074104;28;20718;-74
2021/03/20 11:27:32;;;;;;;2.42;1.90;;;8.90;75.40;;;;;;5074792;28;20214;-74
2021/03/20 11:30:05;;;;;;;4.68;2.15;;;8.90;78.00;;;;;;5072697;28;20244;-74
2021/03/20 11:32:35;;;;;;;3.05;1.80;;;9.00;79.40;;;;;;5083998;28;20223;-74
2021/03/20 11:35:11;;;;;;;2.45;1.48;;;9.00;80.10;;;;;;5090457;28;20258;-74
2021/03/20 11:37:38;;;;;;;2.35;1.83;;;9.00;79.60;;;;;;5091055;28;20899;-74
2021/03/20 11:40:07;;;;;;;3.83;1.85;;;9.00;79.90;;;;;;5078493;28;20225;-74
2021/03/20 11:42:38;;;;;;;3.22;1.30;;;9.00;80.00;;;;;;5077725;28;20281;-74
2021/03/20 11:45:17;;;;;;;2.60;1.73;;;9.00;80.40;;;;;;5090010;28;20569;-74
2021/03/20 11:47:48;;;;;;;1.88;1.40;;;9.00;79.80;;;;;;5081714;28;20217;-74
2021/03/20 11:50:17;;;;;;;1.73;1.50;;;9.00;81.20;;;;;;5089788;28;20205;-74
2021/03/20 11:52:48;;;;;;;2.38;1.50;;;9.00;81.90;;;;;;5077711;28;20210;-74
2021/03/20 11:55:19;;;;;;;1.70;1.30;;;9.00;84.70;;;;;;5071072;28;20182;-75
2021/03/20 11:57:46;;;;;;;2.60;1.38;;;9.10;84.20;;;;;;5070740;28;20214;-74
2021/03/20 12:00:44;;;;;;;2.60;1.55;;;9.00;84.50;;;;;;5071531;28;20267;-74
2021/03/20 12:03:35;;;;;;;1.77;1.58;;;9.00;83.80;;;;;;5071788;28;20352;-75
2021/03/20 12:06:29;;;;;;;2.13;1.15;;;9.00;84.60;;;;;;5083369;28;20193;-75
2021/03/20 12:08:57;;;;;;;2.65;1.60;;;9.00;86.30;;;;;;5051309;28;20229;-75
2021/03/20 12:11:39;;;;;;;1.60;1.20;;;9.10;87.50;;;;;;5083843;28;20229;-75
2021/03/20 12:14:28;;;;;;;1.90;1.50;;;9.10;86.00;;;;;;5090460;28;20250;-75
2021/03/20 12:17:04;;;;;;;2.22;1.73;;;9.00;90.00;;;;;;5089431;28;20193;-75
2021/03/20 12:19:31;;;;;;;3.45;1.25;;;9.00;89.30;;;;;;5088521;28;20915;-74
2021/03/20 12:22:04;;;;;;;1.55;1.17;;;9.00;87.00;;;;;;5090511;28;20271;-75
2021/03/20 12:24:34;;;;;;;1.52;1.30;;;9.10;86.50;;;;;;5074802;28;20276;-75
2021/03/20 12:27:25;;;;;;;1.95;1.42;;;9.10;81.60;;;;;;5074776;28;20268;-74
2021/03/20 12:29:54;;;;;;;1.67;1.42;;;9.10;78.50;;;;;;5087577;28;20885;-75
2021/03/20 12:32:42;;;;;;;3.70;2.00;;;9.10;79.00;;;;;;5094311;28;20247;-75
2021/03/20 12:35:20;;;;;;;3.28;1.45;;;9.10;82.90;;;;;;5087744;28;20285;-75
2021/03/20 12:37:48;;;;;;;2.28;1.40;;;9.10;78.50;;;;;;5089357;28;20213;-75
2021/03/20 12:40:17;;;;;;;1.30;1.20;;;9.20;80.10;;;;;;5073706;28;20217;-74
2021/03/20 12:42:43;;;;;;;2.50;1.25;;;9.20;84.70;;;;;;5074144;28;20226;-74
2021/03/20 12:45:26;;;;;;;2.00;1.38;;;9.20;87.50;;;;;;5081723;28;20214;-74
2021/03/20 12:47:54;;;;;;;2.00;1.42;;;9.20;88.90;;;;;;5077926;28;20255;-74
2021/03/20 12:50:20;;;;;;;1.83;1.50;;;9.20;81.90;;;;;;5093764;28;20247;-75
2021/03/20 12:52:47;;;;;;;1.50;1.25;;;9.20;79.60;;;;;;5080443;28;20214;-75
2021/03/20 12:55:14;;;;;;;1.70;1.40;;;9.20;79.20;;;;;;5074142;28;20770;-76
2021/03/20 12:57:40;;;;;;;5.10;1.30;;;9.30;82.10;;;;;;5075227;28;20684;-76
2021/03/20 13:00:09;;;;;;;2.75;1.35;;;9.30;83.40;;;;;;5085493;28;20627;-75
2021/03/20 13:02:35;;;;;;;1.58;1.25;;;9.30;83.00;;;;;;5087717;28;20214;-75
2021/03/20 13:05:03;;;;;;;1.40;1.20;;;9.20;87.30;;;;;;5084362;28;20197;-75
2021/03/20 13:07:29;;;;;;;2.20;1.45;;;9.30;88.20;;;;;;5093535;28;20201;-74
2021/03/20 13:09:55;;;;;;;2.53;1.48;;;9.30;89.30;;;;;;5093533;28;20221;-75
2021/03/20 13:12:21;;;;;;;1.92;1.23;;;9.30;90.00;;;;;;5091473;28;20399;-75
2021/03/20 13:14:48;;;;;;;1.88;1.08;;;9.30;90.00;;;;;;5080734;28;20206;-75
2021/03/20 13:17:15;;;;;;;1.40;1.20;;;9.40;89.50;;;;;;5086663;28;20206;-75
2021/03/20 13:19:42;;;;;;;3.05;1.55;;;9.40;89.80;;;;;;5080922;28;20217;-75
2021/03/20 13:22:09;;;;;;;1.33;0.90;;;9.40;90.70;;;;;;5076332;28;20233;-75
2021/03/20 13:24:36;;;;;;;5.03;1.40;;;9.40;90.70;;;;;;5085202;28;20189;-75
2021/03/20 13:27:02;;;;;;;1.40;1.30;;;9.40;89.00;;;;;;5093284;28;20209;-75
2021/03/20 13:29:28;;;;;;;1.75;1.50;;;9.40;89.30;;;;;;5086614;28;20240;-75
2021/03/20 13:31:55;;;;;;;1.98;1.20;;;9.40;88.00;;;;;;5092217;28;20214;-75